Time;durP1;ratioP1;P1;durP2;ratioP2;P2;SDS_P1;SDS_P2;PMS_P1;PMS_P2;Temp;Humidity;BMP_temperature;BMP_pressure;BME280_temperature;BME280_humidity;BME280_pressure;Samples;Min_cycle;Max_cycle;Signal;HPM_P1;HPM_P2
2024/01/01 00:01:41;;;;;;;44.13;28.02;;;9.00;97.90;;;;;;6260480;22;20026;-80
2024/01/01 00:04:09;;;;;;;41.38;26.17;;;9.00;98.10;;;;;;6285631;22;20068;-80
2024/01/01 00:06:36;;;;;;;37.65;25.13;;;9.00;97.60;;;;;;6311510;22;20019;-80
2024/01/01 00:09:03;;;;;;;36.10;22.85;;;9.10;97.50;;;;;;6286091;22;20025;-79
2024/01/01 00:11:31;;;;;;;34.20;20.33;;;9.00;97.40;;;;;;6286027;22;20015;-79
2024/01/01 00:13:57;;;;;;;22.80;15.45;;;9.00;97.20;;;;;;6311639;22;20019;-79
2024/01/01 00:16:25;;;;;;;27.90;15.63;;;9.00;97.00;;;;;;6339073;22;20019;-79
2024/01/01 00:18:52;;;;;;;22.67;13.52;;;9.10;96.90;;;;;;6311515;22;20030;-79
2024/01/01 00:21:19;;;;;;;23.30;12.48;;;9.10;96.90;;;;;;6286194;22;20025;-79
2024/01/01 00:23:46;;;;;;;20.00;11.38;;;9.10;96.70;;;;;;6285812;22;20015;-79
2024/01/01 00:26:13;;;;;;;24.05;10.35;;;9.10;96.70;;;;;;6260420;22;20018;-80
2024/01/01 00:28:41;;;;;;;16.70;10.25;;;9.00;96.80;;;;;;6286423;22;20025;-79
2024/01/01 00:31:08;;;;;;;16.35;9.73;;;9.00;96.90;;;;;;6311063;22;20068;-79
2024/01/01 00:33:35;;;;;;;17.92;10.63;;;8.90;97.20;;;;;;6285528;22;20105;-81
2024/01/01 00:36:02;;;;;;;19.00;10.30;;;8.70;97.30;;;;;;6286498;22;20018;-81
2024/01/01 00:38:29;;;;;;;11.65;8.63;;;8.60;97.60;;;;;;6260148;22;20343;-82
2024/01/01 00:40:56;;;;;;;12.68;7.82;;;8.50;97.70;;;;;;6311362;22;20027;-82
2024/01/01 00:43:23;;;;;;;13.27;7.85;;;8.50;97.80;;;;;;6286408;22;20019;-82
2024/01/01 00:45:50;;;;;;;11.30;5.68;;;8.50;97.70;;;;;;6311553;22;20383;-81
2024/01/01 00:48:17;;;;;;;12.30;5.57;;;8.60;97.60;;;;;;6311395;22;20042;-81
2024/01/01 00:50:45;;;;;;;11.18;5.15;;;8.60;97.60;;;;;;6313744;22;20042;-81
2024/01/01 00:53:12;;;;;;;12.88;6.00;;;8.60;97.60;;;;;;6287894;22;20057;-83
2024/01/01 00:55:39;;;;;;;10.45;4.65;;;8.70;97.50;;;;;;6262251;22;20019;-81
2024/01/01 00:58:06;;;;;;;8.32;3.53;;;8.70;97.20;;;;;;6287662;22;20023;-82
2024/01/01 01:00:35;;;;;;;9.60;3.85;;;8.70;97.10;;;;;;6262899;22;20050;-81
2024/01/01 01:03:02;;;;;;;8.82;3.60;;;8.70;97.20;;;;;;6313086;22;20023;-81
2024/01/01 01:05:29;;;;;;;10.43;3.20;;;8.70;97.20;;;;;;6339320;22;20022;-81
2024/01/01 01:07:56;;;;;;;8.70;2.50;;;8.70;97.10;;;;;;6313423;22;20021;-81
2024/01/01 01:10:24;;;;;;;6.30;1.92;;;8.70;96.80;;;;;;6262015;22;20019;-81
2024/01/01 01:12:54;;;;;;;5.22;1.33;;;8.70;96.50;;;;;;6313395;22;20457;-81
2024/01/01 01:15:25;;;;;;;4.55;0.90;;;8.70;96.00;;;;;;6313040;22;20030;-81
2024/01/01 01:17:53;;;;;;;6.07;1.27;;;8.70;96.20;;;;;;6313055;22;20029;-82
2024/01/01 01:20:20;;;;;;;3.97;1.52;;;8.70;96.30;;;;;;6313364;22;20425;-81
2024/01/01 01:22:47;;;;;;;7.75;1.80;;;8.70;96.40;;;;;;6287355;22;20455;-81
2024/01/01 01:25:14;;;;;;;5.97;2.28;;;8.70;96.50;;;;;;6338798;22;20021;-81
2024/01/01 01:27:42;;;;;;;6.93;2.35;;;8.60;96.50;;;;;;6262265;22;20455;-81
2024/01/01 01:30:09;;;;;;;6.68;2.38;;;8.60;96.40;;;;;;6313004;22;20045;-81
2024/01/01 01:32:37;;;;;;;5.90;2.33;;;8.60;96.50;;;;;;6287495;22;20026;-81
2024/01/01 01:35:05;;;;;;;6.70;2.40;;;8.50;96.50;;;;;;6312676;22;20338;-80
2024/01/01 01:37:32;;;;;;;7.15;2.67;;;8.50;96.60;;;;;;6312794;22;20330;-80
2024/01/01 01:39:59;;;;;;;7.10;2.58;;;8.40;96.50;;;;;;6262167;22;20026;-81
2024/01/01 01:42:27;;;;;;;6.15;2.42;;;8.50;96.60;;;;;;6287266;22;20344;-81
2024/01/01 01:44:54;;;;;;;4.43;2.10;;;8.40;96.70;;;;;;6287673;22;20026;-81
2024/01/01 01:47:23;;;;;;;5.03;2.55;;;8.40;96.70;;;;;;6352867;22;20044;-80
2024/01/01 01:49:51;;;;;;;2.78;1.30;;;8.30;96.60;;;;;;6337662;22;20040;-81
2024/01/01 01:52:21;;;;;;;5.35;1.70;;;8.30;96.60;;;;;;6337359;22;20007;-81
2024/01/01 01:54:50;;;;;;;3.95;1.45;;;8.30;96.70;;;;;;6321090;22;20030;-81
2024/01/01 01:57:17;;;;;;;7.80;2.35;;;8.20;96.70;;;;;;6319351;22;20022;-81
2024/01/01 01:59:45;;;;;;;5.53;1.23;;;8.20;96.70;;;;;;6319417;22;20022;-81
2024/01/01 02:02:12;;;;;;;6.18;2.00;;;8.20;96.70;;;;;;6343930;22;20038;-81
2024/01/01 02:04:40;;;;;;;6.97;1.63;;;8.10;96.70;;;;;;6318185;22;20018;-81
2024/01/01 02:07:07;;;;;;;6.60;2.17;;;8.10;96.80;;;;;;6344324;22;20019;-81
2024/01/01 02:09:34;;;;;;;5.25;1.30;;;8.10;96.80;;;;;;6344234;22;20456;-81
2024/01/01 02:12:01;;;;;;;5.90;1.23;;;8.10;96.90;;;;;;6344380;22;20463;-81
2024/01/01 02:14:29;;;;;;;6.38;1.70;;;8.00;96.90;;;;;;6292603;22;20121;-81
2024/01/01 02:16:56;;;;;;;2.55;0.75;;;8.00;97.00;;;;;;6372297;22;20018;-81
2024/01/01 02:19:26;;;;;;;9.07;1.92;;;8.00;97.10;;;;;;6343857;22;20029;-81
2024/01/01 02:21:54;;;;;;;4.45;0.82;;;8.00;97.20;;;;;;6343711;22;20018;-81
2024/01/01 02:24:21;;;;;;;4.20;0.90;;;8.00;97.30;;;;;;6318026;22;20025;-81
2024/01/01 02:26:49;;;;;;;4.53;1.00;;;8.00;97.30;;;;;;6317778;22;20025;-81
2024/01/01 02:29:16;;;;;;;6.38;1.13;;;8.00;97.50;;;;;;6317566;22;20038;-81
2024/01/01 02:31:45;;;;;;;5.38;1.10;;;7.90;97.50;;;;;;6317650;22;20030;-81
2024/01/01 02:34:13;;;;;;;3.90;1.00;;;7.90;97.70;;;;;;6343853;22;20433;-81
2024/01/01 02:36:40;;;;;;;4.82;1.30;;;7.90;97.80;;;;;;6317761;22;20026;-81
2024/01/01 02:39:09;;;;;;;7.78;2.03;;;7.90;97.80;;;;;;6292518;22;20415;-81
2024/01/01 02:41:37;;;;;;;5.15;1.00;;;7.90;97.80;;;;;;6292867;22;20101;-81
2024/01/01 02:44:05;;;;;;;4.15;0.82;;;7.90;97.90;;;;;;6369683;22;20019;-81
2024/01/01 02:46:32;;;;;;;5.75;1.05;;;8.00;97.90;;;;;;6317117;22;20025;-81
2024/01/01 02:48:59;;;;;;;7.60;1.63;;;8.00;97.90;;;;;;6317887;22;20019;-82
2024/01/01 02:51:26;;;;;;;4.20;0.70;;;8.00;98.00;;;;;;6317692;22;20025;-81
2024/01/01 02:53:53;;;;;;;9.50;1.38;;;7.80;98.30;;;;;;6317523;22;20443;-81
2024/01/01 02:56:24;;;;;;;8.45;0.90;;;7.70;99.00;;;;;;6317547;22;20440;-81
2024/01/01 02:58:52;;;;;;;6.78;1.10;;;7.60;99.40;;;;;;6343478;22;20390;-81
2024/01/01 03:01:19;;;;;;;6.57;1.50;;;7.50;99.90;;;;;;6318016;22;20411;-82
2024/01/01 03:03:46;;;;;;;4.65;0.80;;;7.40;99.90;;;;;;6317425;22;20067;-81
2024/01/01 03:06:18;;;;;;;3.70;0.82;;;7.30;99.90;;;;;;6317672;22;20071;-81
2024/01/01 03:08:45;;;;;;;8.07;1.50;;;7.30;99.90;;;;;;6317366;22;20083;-80
2024/01/01 03:11:12;;;;;;;4.72;0.80;;;7.30;99.90;;;;;;6317334;22;20590;-81
2024/01/01 03:13:39;;;;;;;4.47;0.95;;;7.30;99.90;;;;;;6317291;22;20018;-80
2024/01/01 03:16:08;;;;;;;6.28;1.10;;;7.30;99.90;;;;;;6291641;22;20018;-80
2024/01/01 03:18:35;;;;;;;7.28;1.60;;;7.20;99.90;;;;;;6343641;22;20014;-80
2024/01/01 03:21:03;;;;;;;5.93;0.90;;;7.20;99.90;;;;;;6317171;22;20109;-81
2024/01/01 03:23:30;;;;;;;2.90;0.70;;;7.20;99.90;;;;;;6317743;22;20018;-81
2024/01/01 03:25:57;;;;;;;6.35;1.00;;;7.30;99.90;;;;;;6266544;22;20022;-81
2024/01/01 03:28:25;;;;;;;7.15;1.02;;;7.30;99.90;;;;;;6317259;22;20025;-80
2024/01/01 03:30:52;;;;;;;5.93;0.90;;;7.20;99.90;;;;;;6343621;22;20424;-80
2024/01/01 03:33:19;;;;;;;6.68;1.00;;;7.20;99.90;;;;;;6342975;22;20542;-80
2024/01/01 03:35:46;;;;;;;6.05;0.85;;;7.20;99.90;;;;;;6291686;22;20427;-81
2024/01/01 03:38:13;;;;;;;7.03;1.25;;;7.30;99.90;;;;;;6317231;22;20026;-80
2024/01/01 03:40:40;;;;;;;8.25;1.08;;;7.30;99.90;;;;;;6317337;22;20022;-80
2024/01/01 03:43:07;;;;;;;6.20;1.00;;;7.40;99.90;;;;;;6291642;22;20050;-81
2024/01/01 03:45:35;;;;;;;5.80;0.90;;;7.40;99.90;;;;;;6342314;22;20022;-80
2024/01/01 03:48:02;;;;;;;7.72;0.90;;;7.40;99.90;;;;;;6337645;22;20026;-80
2024/01/01 03:50:30;;;;;;;6.18;1.08;;;7.50;99.90;;;;;;6285943;22;20383;-80
2024/01/01 03:52:57;;;;;;;6.07;0.90;;;7.50;99.90;;;;;;6311468;22;20334;-80
2024/01/01 03:55:24;;;;;;;5.32;0.65;;;7.50;99.90;;;;;;6260885;22;20448;-80
2024/01/01 03:57:51;;;;;;;7.72;0.90;;;7.50;99.90;;;;;;6311301;22;20080;-80
2024/01/01 04:00:19;;;;;;;6.68;0.75;;;7.50;99.90;;;;;;6337722;22;20018;-80
2024/01/01 04:02:46;;;;;;;4.18;0.98;;;7.50;99.90;;;;;;6311394;22;20027;-80
2024/01/01 04:05:13;;;;;;;8.38;1.05;;;7.50;99.90;;;;;;6260539;22;20356;-80
2024/01/01 04:07:41;;;;;;;5.38;0.98;;;7.50;99.90;;;;;;6260481;22;20076;-80
2024/01/01 04:10:09;;;;;;;5.78;1.00;;;7.60;99.90;;;;;;6285941;22;20356;-82
2024/01/01 04:12:37;;;;;;;8.85;0.93;;;7.60;99.90;;;;;;6285523;22;20041;-80
2024/01/01 04:15:04;;;;;;;8.27;0.90;;;7.60;99.90;;;;;;6311207;22;20018;-80
2024/01/01 04:17:32;;;;;;;5.72;0.73;;;7.60;99.90;;;;;;6286061;22;20072;-80
2024/01/01 04:20:00;;;;;;;5.90;0.90;;;7.60;99.90;;;;;;6286139;22;20021;-82
2024/01/01 04:22:27;;;;;;;4.25;0.70;;;7.50;99.90;;;;;;6285595;22;20399;-81
2024/01/01 04:24:54;;;;;;;6.38;0.70;;;7.50;99.90;;;;;;6311676;22;20014;-80
2024/01/01 04:27:21;;;;;;;5.65;0.70;;;7.50;99.90;;;;;;6285757;22;20091;-81
2024/01/01 04:29:48;;;;;;;11.73;0.88;;;7.60;99.90;;;;;;6338651;22;20501;-80
2024/01/01 04:32:15;;;;;;;9.40;1.02;;;7.70;99.90;;;;;;6260291;22;20400;-80
2024/01/01 04:34:42;;;;;;;3.88;0.73;;;7.70;99.90;;;;;;6285739;22;20445;-80
2024/01/01 04:37:09;;;;;;;7.75;1.23;;;7.80;99.90;;;;;;6260373;22;20023;-80
2024/01/01 04:39:36;;;;;;;4.80;0.70;;;7.80;99.90;;;;;;6286203;22;20026;-81
2024/01/01 04:42:03;;;;;;;8.02;1.75;;;7.80;99.90;;;;;;6311596;22;20019;-80
2024/01/01 04:44:31;;;;;;;9.45;1.55;;;7.80;99.90;;;;;;6260304;22;20021;-80
2024/01/01 04:46:58;;;;;;;5.65;0.80;;;7.80;99.90;;;;;;6337033;22;20031;-80
2024/01/01 04:49:25;;;;;;;5.25;0.95;;;7.90;99.90;;;;;;6337189;22;20014;-80
2024/01/01 04:51:52;;;;;;;4.22;0.93;;;7.90;99.90;;;;;;6285347;22;20069;-80
2024/01/01 04:54:19;;;;;;;10.90;1.38;;;7.90;99.90;;;;;;6336955;22;20023;-80
2024/01/01 04:56:46;;;;;;;6.53;1.30;;;7.90;99.90;;;;;;6285813;22;20025;-80
2024/01/01 04:59:13;;;;;;;3.83;0.60;;;7.90;99.90;;;;;;6337900;22;20015;-80
2024/01/01 05:01:40;;;;;;;8.13;1.27;;;7.90;99.90;;;;;;6337343;22;20467;-80
2024/01/01 05:04:07;;;;;;;4.80;0.90;;;7.90;99.90;;;;;;6311407;22;20018;-80
2024/01/01 05:06:34;;;;;;;8.10;2.03;;;7.90;99.90;;;;;;6311298;22;20042;-80
2024/01/01 05:09:01;;;;;;;7.63;1.02;;;7.90;99.90;;;;;;6337109;22;20065;-80
2024/01/01 05:11:29;;;;;;;8.98;0.77;;;7.90;99.90;;;;;;6311181;22;20019;-80
2024/01/01 05:13:56;;;;;;;9.32;1.08;;;7.80;99.90;;;;;;6286015;22;20019;-80
2024/01/01 05:16:23;;;;;;;4.55;0.77;;;7.80;99.90;;;;;;6285986;22;20097;-81
2024/01/01 05:18:50;;;;;;;4.25;0.70;;;7.70;99.90;;;;;;6311166;22;20391;-80
2024/01/01 05:21:18;;;;;;;4.13;0.80;;;7.60;99.90;;;;;;6338750;22;20022;-80
2024/01/01 05:23:45;;;;;;;9.30;1.33;;;7.60;99.90;;;;;;6285498;22;20048;-80
2024/01/01 05:26:12;;;;;;;6.03;1.17;;;7.50;99.90;;;;;;6336724;22;20064;-80
2024/01/01 05:28:39;;;;;;;4.88;0.80;;;7.50;99.90;;;;;;6338699;22;20019;-80
2024/01/01 05:31:06;;;;;;;5.70;0.77;;;7.40;99.90;;;;;;6310951;22;20022;-80
2024/01/01 05:33:33;;;;;;;7.10;0.90;;;7.40;99.90;;;;;;6337139;22;20437;-80
2024/01/01 05:36:00;;;;;;;3.65;0.60;;;7.40;99.90;;;;;;6261826;22;20392;-80
2024/01/01 05:38:28;;;;;;;7.63;0.90;;;7.40;99.90;;;;;;6295461;22;20479;-80
2024/01/01 05:40:55;;;;;;;8.02;0.65;;;7.30;99.90;;;;;;6330813;22;20011;-80
2024/01/01 05:43:22;;;;;;;4.78;0.82;;;7.30;99.90;;;;;;6301544;22;20014;-80
2024/01/01 05:45:49;;;;;;;4.35;0.75;;;7.30;99.90;;;;;;6314479;22;20433;-80
2024/01/01 05:48:16;;;;;;;7.50;0.88;;;7.30;99.90;;;;;;6315672;22;20019;-80
2024/01/01 05:50:55;;;;;;;5.65;1.00;;;7.30;99.90;;;;;;6316559;22;20567;-80
2024/01/01 05:53:22;;;;;;;5.38;1.30;;;7.30;99.90;;;;;;6287445;22;20011;-80
2024/01/01 05:55:49;;;;;;;5.78;1.17;;;7.40;99.90;;;;;;6312966;22;20437;-80
2024/01/01 05:58:17;;;;;;;9.23;1.63;;;7.40;99.90;;;;;;6338664;22;20061;-80
2024/01/01 06:00:45;;;;;;;6.50;0.85;;;7.50;99.90;;;;;;6312511;22;20026;-80
2024/01/01 06:03:12;;;;;;;4.35;1.10;;;7.50;99.90;;;;;;6286759;22;20023;-80
2024/01/01 06:05:39;;;;;;;8.38;1.25;;;7.50;99.90;;;;;;6286923;22;20439;-80
2024/01/01 06:08:06;;;;;;;5.65;0.80;;;7.50;99.90;;;;;;6339951;22;20014;-80
2024/01/01 06:10:34;;;;;;;5.80;0.85;;;7.50;99.90;;;;;;6287404;22;20018;-87
2024/01/01 06:13:02;;;;;;;4.57;0.90;;;7.50;99.90;;;;;;6286892;22;20014;-81
2024/01/01 06:15:29;;;;;;;7.22;0.77;;;7.50;99.90;;;;;;6338551;22;20022;-80
2024/01/01 06:17:56;;;;;;;7.07;1.08;;;7.50;99.90;;;;;;6312500;22;20019;-79
2024/01/01 06:20:24;;;;;;;4.47;0.60;;;7.50;99.90;;;;;;6312901;22;20041;-79
2024/01/01 06:22:51;;;;;;;8.45;1.45;;;7.40;99.90;;;;;;6286991;22;20023;-80
2024/01/01 06:25:18;;;;;;;6.13;0.75;;;7.40;99.90;;;;;;6286456;22;20021;-80
2024/01/01 06:27:45;;;;;;;5.15;0.88;;;7.50;99.90;;;;;;6286749;22;20019;-79
2024/01/01 06:30:12;;;;;;;5.95;0.90;;;7.50;99.90;;;;;;6286909;22;20015;-80
2024/01/01 06:32:39;;;;;;;5.97;0.88;;;7.50;99.90;;;;;;6312430;22;20011;-80
2024/01/01 06:35:07;;;;;;;3.53;0.65;;;7.50;99.90;;;;;;6286907;22;20086;-80
2024/01/01 06:37:34;;;;;;;4.70;0.90;;;7.40;99.90;;;;;;6311963;22;20022;-79
2024/01/01 06:40:01;;;;;;;5.28;1.15;;;7.40;99.90;;;;;;6312254;22;20068;-79
2024/01/01 06:42:28;;;;;;;6.50;0.85;;;7.40;99.90;;;;;;6312104;22;20019;-79
2024/01/01 06:45:06;;;;;;;5.55;1.45;;;7.40;99.90;;;;;;6312141;22;20014;-79
2024/01/01 06:47:33;;;;;;;9.00;1.38;;;7.40;99.90;;;;;;6337539;22;20013;-80
2024/01/01 06:50:01;;;;;;;7.72;1.40;;;7.40;99.90;;;;;;6286519;22;20015;-85
2024/01/01 06:52:28;;;;;;;6.78;1.40;;;7.40;99.90;;;;;;6261350;22;20019;-81
2024/01/01 06:54:55;;;;;;;6.95;1.50;;;7.30;99.90;;;;;;6312417;22;20019;-80
2024/01/01 06:57:24;;;;;;;4.07;0.90;;;7.40;99.90;;;;;;6287031;22;20389;-80
2024/01/01 06:59:51;;;;;;;6.25;0.68;;;7.30;99.90;;;;;;6311956;22;20068;-80
2024/01/01 07:02:19;;;;;;;7.00;1.50;;;7.40;99.90;;;;;;6286574;22;20019;-80
2024/01/01 07:04:46;;;;;;;4.45;0.70;;;7.30;99.90;;;;;;6312282;22;20029;-80
2024/01/01 07:07:14;;;;;;;4.80;0.60;;;7.40;99.90;;;;;;6312180;22;20441;-81
2024/01/01 07:09:41;;;;;;;4.72;0.60;;;7.40;99.90;;;;;;6337715;22;20097;-81
2024/01/01 07:12:28;;;;;;;8.90;1.67;;;7.40;99.90;;;;;;6312497;22;20015;-81
2024/01/01 07:14:56;;;;;;;4.30;1.00;;;7.50;99.90;;;;;;6287915;22;20080;-81
2024/01/01 07:17:22;;;;;;;5.30;1.05;;;7.50;99.90;;;;;;6338238;22;20116;-81
2024/01/01 07:19:50;;;;;;;5.78;1.20;;;7.50;99.90;;;;;;6312537;22;20023;-81
2024/01/01 07:22:17;;;;;;;7.22;1.20;;;7.50;99.90;;;;;;6311972;22;20018;-80
2024/01/01 07:24:44;;;;;;;5.30;1.08;;;7.60;99.90;;;;;;6339386;22;20038;-81
2024/01/01 07:27:11;;;;;;;7.47;1.23;;;7.50;99.90;;;;;;6311666;22;20330;-81
2024/01/01 07:29:40;;;;;;;8.57;1.48;;;7.50;99.90;;;;;;6286598;22;20060;-81
2024/01/01 07:32:07;;;;;;;12.38;2.00;;;7.50;99.90;;;;;;6286610;22;20080;-81
2024/01/01 07:34:34;;;;;;;6.22;1.20;;;7.50;99.90;;;;;;6286456;22;20016;-81
2024/01/01 07:37:03;;;;;;;8.00;2.20;;;7.40;99.90;;;;;;6286042;22;20064;-81
2024/01/01 07:39:30;;;;;;;7.10;2.47;;;7.50;99.90;;;;;;6312405;22;20018;-82
2024/01/01 07:41:57;;;;;;;6.93;2.45;;;7.40;99.90;;;;;;6311456;22;20026;-81
2024/01/01 07:44:24;;;;;;;7.97;2.60;;;7.40;99.90;;;;;;6311958;22;20026;-82
2024/01/01 07:46:53;;;;;;;10.82;3.45;;;7.50;99.90;;;;;;6278420;22;20056;-81
2024/01/01 07:49:20;;;;;;;9.95;3.90;;;7.50;99.90;;;;;;6317870;22;20025;-81
2024/01/01 07:51:47;;;;;;;7.55;3.35;;;7.50;99.90;;;;;;6343001;22;20015;-82
2024/01/01 07:54:14;;;;;;;8.48;3.42;;;7.50;99.90;;;;;;6291448;22;20440;-81
2024/01/01 07:56:44;;;;;;;6.97;2.75;;;7.50;99.90;;;;;;6343431;22;20014;-81
2024/01/01 07:59:14;;;;;;;8.98;2.40;;;7.40;99.90;;;;;;6291829;22;20018;-81
2024/01/01 08:01:42;;;;;;;6.28;1.67;;;7.40;99.90;;;;;;6343688;22;20025;-81
2024/01/01 08:04:09;;;;;;;11.23;2.13;;;7.40;99.90;;;;;;6368913;22;20018;-83
2024/01/01 08:06:36;;;;;;;8.00;1.95;;;7.40;99.90;;;;;;6343056;22;20022;-82
2024/01/01 08:09:03;;;;;;;5.93;1.67;;;7.40;99.90;;;;;;6342958;22;20089;-81
2024/01/01 08:11:30;;;;;;;7.72;2.55;;;7.40;99.90;;;;;;6342661;22;20071;-81
2024/01/01 08:13:57;;;;;;;5.32;1.17;;;7.40;99.90;;;;;;6342864;22;20432;-81
2024/01/01 08:16:25;;;;;;;8.77;1.33;;;7.50;99.90;;;;;;6316828;22;20018;-81
2024/01/01 08:18:56;;;;;;;7.03;1.38;;;7.50;99.90;;;;;;6368615;22;20090;-81
2024/01/01 08:21:23;;;;;;;6.10;1.30;;;7.50;99.90;;;;;;6317711;22;20048;-81
2024/01/01 08:23:50;;;;;;;7.43;1.80;;;7.50;99.90;;;;;;6316583;22;20267;-82
2024/01/01 08:26:21;;;;;;;5.75;1.15;;;7.60;99.90;;;;;;6292573;22;20018;-81
2024/01/01 08:28:51;;;;;;;6.68;1.30;;;7.60;99.90;;;;;;6342631;22;20082;-82
2024/01/01 08:31:20;;;;;;;5.72;1.10;;;7.50;99.90;;;;;;6343021;22;20071;-82
2024/01/01 08:33:48;;;;;;;5.93;1.13;;;7.50;99.90;;;;;;6342772;22;20026;-82
2024/01/01 08:36:21;;;;;;;6.65;1.30;;;7.50;99.90;;;;;;6317215;22;20069;-82
2024/01/01 08:38:48;;;;;;;3.47;1.15;;;7.50;99.90;;;;;;6292615;22;20414;-82
2024/01/01 08:41:15;;;;;;;4.90;0.98;;;7.50;99.90;;;;;;6291088;22;20018;-81
2024/01/01 08:43:56;;;;;;;8.30;1.95;;;7.50;99.90;;;;;;6292840;22;20067;-81
2024/01/01 08:46:24;;;;;;;7.80;1.20;;;7.50;99.90;;;;;;6315907;22;20045;-81
2024/01/01 08:48:52;;;;;;;4.60;1.50;;;7.40;99.90;;;;;;6289631;22;20015;-81
2024/01/01 08:51:19;;;;;;;6.05;1.30;;;7.30;99.90;;;;;;6341282;22;20014;-81
2024/01/01 08:53:46;;;;;;;6.43;1.23;;;7.30;99.90;;;;;;6315591;22;20014;-81
2024/01/01 08:56:13;;;;;;;6.80;1.17;;;7.30;99.90;;;;;;6314945;22;20512;-81
2024/01/01 08:58:40;;;;;;;6.53;1.40;;;7.30;99.90;;;;;;6341208;22;20399;-81
2024/01/01 09:01:07;;;;;;;11.45;2.35;;;7.30;99.90;;;;;;6341484;22;20049;-81
2024/01/01 09:03:37;;;;;;;5.93;1.45;;;7.30;99.90;;;;;;6315491;22;20390;-81
2024/01/01 09:06:04;;;;;;;7.18;1.40;;;7.30;99.90;;;;;;6341081;22;20097;-81
2024/01/01 09:08:31;;;;;;;8.70;1.70;;;7.30;99.90;;;;;;6340908;22;20097;-81
2024/01/01 09:10:58;;;;;;;5.75;1.70;;;7.30;99.90;;;;;;6342104;22;20094;-81
2024/01/01 09:13:25;;;;;;;4.90;1.40;;;7.30;99.90;;;;;;6290877;22;20025;-81
2024/01/01 09:15:52;;;;;;;8.38;1.88;;;7.30;99.90;;;;;;6316382;22;20448;-81
2024/01/01 09:18:19;;;;;;;9.48;2.00;;;7.30;99.90;;;;;;6369929;22;20071;-81
2024/01/01 09:20:47;;;;;;;4.53;1.52;;;7.30;99.90;;;;;;6342243;22;20052;-81
2024/01/01 09:23:14;;;;;;;5.47;1.40;;;7.20;99.90;;;;;;6316125;22;20018;-81
2024/01/01 09:25:42;;;;;;;7.05;1.67;;;7.20;99.90;;;;;;6316534;22;20022;-81
2024/01/01 09:28:09;;;;;;;11.82;2.55;;;7.20;99.90;;;;;;6316250;22;20022;-80
2024/01/01 09:30:36;;;;;;;5.43;1.30;;;7.20;99.90;;;;;;6344912;22;20023;-81
2024/01/01 09:33:03;;;;;;;3.92;1.10;;;7.20;99.90;;;;;;6367935;22;20010;-80
2024/01/01 09:35:31;;;;;;;9.25;1.52;;;7.20;99.90;;;;;;6370337;22;20019;-80
2024/01/01 09:37:58;;;;;;;6.95;1.63;;;7.20;99.90;;;;;;6346621;22;20039;-82
2024/01/01 09:40:25;;;;;;;9.27;1.85;;;7.30;99.90;;;;;;6343051;22;20056;-82
2024/01/01 09:42:52;;;;;;;10.73;1.70;;;7.30;99.90;;;;;;6372835;22;20018;-81
2024/01/01 09:45:19;;;;;;;7.68;1.63;;;7.40;99.90;;;;;;6290684;22;20441;-81
2024/01/01 09:47:46;;;;;;;6.07;1.70;;;7.40;99.90;;;;;;6267484;22;1138150;-80
2024/01/01 09:50:14;;;;;;;7.38;1.65;;;7.50;99.90;;;;;;6318379;22;20813;-81
2024/01/01 09:52:41;;;;;;;6.55;1.88;;;7.40;99.90;;;;;;6344195;22;20022;-81
2024/01/01 09:55:08;;;;;;;5.78;1.15;;;7.40;99.90;;;;;;6344289;22;20024;-81
2024/01/01 09:57:35;;;;;;;4.97;1.23;;;7.40;99.90;;;;;;6344184;22;20019;-81
2024/01/01 10:00:05;;;;;;;7.60;1.95;;;7.40;99.90;;;;;;6318353;22;20025;-76
2024/01/01 10:02:37;;;;;;;4.45;1.17;;;7.40;99.90;;;;;;6321189;22;20520;-76
2024/01/01 10:05:12;;;;;;;5.72;1.10;;;7.30;99.90;;;;;;6343936;22;20014;-76
2024/01/01 10:07:40;;;;;;;4.15;1.23;;;7.30;99.90;;;;;;6318165;22;20068;-76
2024/01/01 10:10:07;;;;;;;4.90;1.02;;;7.30;99.90;;;;;;6343792;22;20014;-75
2024/01/01 10:12:34;;;;;;;3.80;1.00;;;7.40;99.90;;;;;;6292173;22;20018;-76
2024/01/01 10:15:01;;;;;;;3.10;1.17;;;7.40;99.90;;;;;;6292414;22;20041;-75
2024/01/01 10:17:31;;;;;;;4.38;0.90;;;7.40;99.90;;;;;;6318272;22;20014;-76
2024/01/01 10:20:02;;;;;;;3.67;1.00;;;7.40;99.90;;;;;;6343861;22;20014;-75
2024/01/01 10:22:31;;;;;;;6.15;1.15;;;7.40;99.90;;;;;;6318012;22;20019;-75
2024/01/01 10:25:15;;;;;;;4.10;1.08;;;7.30;99.90;;;;;;6317630;22;20014;-75
2024/01/01 10:27:44;;;;;;;3.65;1.00;;;7.30;99.90;;;;;;6343420;22;20025;-76
2024/01/01 10:30:11;;;;;;;7.03;1.20;;;7.30;99.90;;;;;;6343997;22;20018;-80
2024/01/01 10:32:44;;;;;;;3.78;0.85;;;7.40;99.90;;;;;;6292288;22;20075;-82
2024/01/01 10:35:12;;;;;;;3.53;1.17;;;7.40;99.90;;;;;;6317637;22;20046;-79
2024/01/01 10:37:39;;;;;;;2.95;1.20;;;7.40;99.90;;;;;;6317493;22;20394;-77
2024/01/01 10:40:08;;;;;;;5.20;1.00;;;7.40;99.90;;;;;;6317516;22;20024;-77
2024/01/01 10:42:35;;;;;;;2.90;0.70;;;7.40;99.90;;;;;;6292166;22;20329;-78
2024/01/01 10:45:05;;;;;;;8.45;1.77;;;7.40;99.90;;;;;;6343567;22;20018;-77
2024/01/01 10:47:33;;;;;;;4.43;1.63;;;7.40;99.90;;;;;;6286763;22;20029;-78
2024/01/01 10:50:27;;;;;;;4.97;0.85;;;7.40;99.90;;;;;;6311744;22;20324;-77
2024/01/01 10:52:54;;;;;;;4.15;0.85;;;7.40;99.90;;;;;;6311842;22;20043;-76
2024/01/01 10:55:26;;;;;;;6.93;1.40;;;7.40;99.90;;;;;;6337720;22;20019;-76
2024/01/01 10:58:05;;;;;;;4.63;1.15;;;7.50;99.90;;;;;;6312157;22;20433;-76
2024/01/01 11:00:35;;;;;;;6.25;1.10;;;7.50;99.90;;;;;;6311694;22;20049;-76
2024/01/01 11:03:04;;;;;;;3.88;1.00;;;7.50;99.90;;;;;;6311698;22;20049;-81
2024/01/01 11:05:33;;;;;;;4.60;1.35;;;7.50;99.90;;;;;;6311880;22;20073;-75
2024/01/01 11:08:02;;;;;;;3.80;0.82;;;7.60;99.90;;;;;;6311542;22;20026;-75
2024/01/01 11:10:45;;;;;;;4.35;1.10;;;7.70;99.90;;;;;;6337722;22;20014;-74
2024/01/01 11:13:26;;;;;;;4.40;1.08;;;8.00;99.90;;;;;;6311666;22;20018;-73
2024/01/01 11:16:03;;;;;;;5.43;1.08;;;8.00;99.90;;;;;;6311356;22;20018;-73
2024/01/01 11:18:31;;;;;;;9.95;1.60;;;8.00;99.90;;;;;;6311072;22;20408;-73
2024/01/01 11:21:01;;;;;;;6.35;1.15;;;8.00;99.90;;;;;;6311693;22;20091;-75
2024/01/01 11:23:47;;;;;;;5.65;1.40;;;8.00;99.90;;;;;;6311741;22;20087;-76
2024/01/01 11:26:23;;;;;;;3.80;1.30;;;8.00;99.90;;;;;;6311580;22;20327;-76
2024/01/01 11:28:55;;;;;;;3.60;1.20;;;7.90;99.90;;;;;;6311685;22;20015;-76
2024/01/01 11:31:26;;;;;;;3.60;1.20;;;7.90;99.90;;;;;;6337575;22;20068;-75
2024/01/01 11:34:02;;;;;;;5.75;1.88;;;7.70;99.90;;;;;;6337554;22;20041;-77
2024/01/01 11:36:47;;;;;;;7.40;1.70;;;7.70;99.90;;;;;;6315462;22;20029;-77
2024/01/01 11:39:21;;;;;;;4.53;1.30;;;7.60;99.90;;;;;;6262090;22;20106;-77
2024/01/01 11:41:48;;;;;;;6.93;1.23;;;7.60;99.90;;;;;;6311300;22;20437;-76
2024/01/01 11:44:17;;;;;;;4.05;1.10;;;7.50;99.90;;;;;;6337100;22;20030;-73
2024/01/01 11:46:46;;;;;;;7.70;1.60;;;7.60;99.90;;;;;;6326988;22;20396;-79
2024/01/01 11:49:13;;;;;;;6.50;1.35;;;7.60;99.90;;;;;;6311783;22;20015;-76
2024/01/01 11:51:51;;;;;;;6.80;1.13;;;7.70;99.90;;;;;;6311331;22;20061;-81
2024/01/01 11:54:18;;;;;;;3.22;0.82;;;7.70;99.90;;;;;;6310952;22;20019;-74
2024/01/01 11:56:46;;;;;;;8.68;1.20;;;7.80;99.90;;;;;;6286230;22;20022;-74
2024/01/01 11:59:15;;;;;;;9.52;1.35;;;7.90;99.90;;;;;;6261328;22;20115;-73
2024/01/01 12:01:44;;;;;;;4.55;1.20;;;7.90;99.90;;;;;;6285944;22;20019;-73
2024/01/01 12:04:12;;;;;;;7.30;0.80;;;7.90;99.90;;;;;;6310938;22;20019;-73
2024/01/01 12:06:38;;;;;;;6.40;1.30;;;8.00;99.90;;;;;;6311304;22;20429;-74
2024/01/01 12:09:12;;;;;;;5.18;1.48;;;8.00;99.90;;;;;;6310366;22;20015;-73
2024/01/01 12:11:41;;;;;;;4.65;1.10;;;8.00;99.90;;;;;;6338611;22;20019;-73
2024/01/01 12:14:08;;;;;;;7.78;1.15;;;8.00;99.90;;;;;;6311107;22;20340;-73
2024/01/01 12:16:37;;;;;;;9.75;1.88;;;8.00;99.90;;;;;;6285675;22;20395;-73
2024/01/01 12:19:06;;;;;;;5.18;1.02;;;8.00;99.90;;;;;;6310929;22;20029;-73
2024/01/01 12:21:37;;;;;;;3.58;0.90;;;7.90;99.90;;;;;;6285251;22;20022;-73
2024/01/01 12:24:11;;;;;;;4.75;0.98;;;7.90;99.90;;;;;;6338484;22;20318;-73
2024/01/01 12:26:39;;;;;;;6.68;1.00;;;7.80;99.90;;;;;;6311110;22;20064;-74
2024/01/01 12:29:12;;;;;;;4.20;1.00;;;7.80;99.90;;;;;;6311403;22;20025;-74
2024/01/01 12:31:41;;;;;;;4.28;0.80;;;7.80;99.90;;;;;;6338513;22;20444;-73
2024/01/01 12:34:12;;;;;;;5.90;0.93;;;7.70;99.90;;;;;;6310703;22;20019;-74
2024/01/01 12:36:41;;;;;;;6.32;1.02;;;7.70;99.90;;;;;;6311124;22;20029;-73
2024/01/01 12:39:08;;;;;;;6.63;1.17;;;7.80;99.90;;;;;;6311207;22;20026;-73
2024/01/01 12:41:35;;;;;;;5.60;0.88;;;8.00;99.90;;;;;;6285125;22;20021;-73
2024/01/01 12:44:02;;;;;;;8.18;1.20;;;8.20;99.90;;;;;;6285040;22;20455;-73
2024/01/01 12:46:30;;;;;;;6.30;0.80;;;8.40;99.90;;;;;;6337775;22;20045;-73
2024/01/01 12:48:58;;;;;;;9.40;1.73;;;8.50;99.90;;;;;;6310763;22;20022;-73
2024/01/01 12:51:26;;;;;;;8.02;1.00;;;8.50;99.90;;;;;;6336785;22;20015;-73
2024/01/01 12:53:57;;;;;;;11.05;1.67;;;8.60;99.90;;;;;;6310827;22;20026;-73
2024/01/01 12:56:25;;;;;;;9.95;1.55;;;8.70;99.90;;;;;;6310595;22;20018;-73
2024/01/01 12:58:52;;;;;;;8.38;2.28;;;8.70;99.90;;;;;;6338445;22;20017;-72
2024/01/01 13:01:20;;;;;;;9.23;1.55;;;8.70;99.90;;;;;;6336708;22;20014;-74